Time;durP1;ratioP1;P1;durP2;ratioP2;P2;SDS_P1;SDS_P2;PMS_P1;PMS_P2;Temp;Humidity;BMP_temperature;BMP_pressure;BME280_temperature;BME280_humidity;BME280_pressure;Samples;Min_cycle;Max_cycle;Signal;HPM_P1;HPM_P2
2022/01/16 00:04:07;;;;;;;122.50;38.05;;;2.00;99.90;;;;;;5038620;28;20045;-76
2022/01/16 00:06:34;;;;;;;106.63;36.85;;;2.10;99.90;;;;;;5022251;28;20048;-76
2022/01/16 00:08:59;;;;;;;112.30;36.33;;;2.10;99.90;;;;;;5038531;28;20049;-76
2022/01/16 00:11:26;;;;;;;112.72;36.42;;;2.10;99.90;;;;;;5038094;28;20112;-75
2022/01/16 00:13:52;;;;;;;108.10;38.20;;;2.10;99.90;;;;;;5022470;28;20040;-76
2022/01/16 00:16:18;;;;;;;93.93;34.70;;;2.10;99.90;;;;;;5038479;28;20376;-76
2022/01/16 00:18:52;;;;;;;94.22;35.30;;;2.10;99.90;;;;;;5038020;28;20483;-75
2022/01/16 00:21:37;;;;;;;102.07;37.65;;;2.00;99.90;;;;;;5021246;28;20041;-76
2022/01/16 00:24:04;;;;;;;93.82;34.75;;;2.00;99.90;;;;;;5034088;28;20071;-76
2022/01/16 00:26:30;;;;;;;100.55;35.85;;;1.90;99.90;;;;;;5054573;28;20045;-76
2022/01/16 00:28:55;;;;;;;98.13;35.78;;;1.90;99.90;;;;;;5038227;28;20056;-76
2022/01/16 00:31:23;;;;;;;101.30;36.53;;;1.90;99.90;;;;;;5037613;28;20475;-76
2022/01/16 00:33:49;;;;;;;102.53;36.97;;;1.90;99.90;;;;;;5037595;28;20123;-78
2022/01/16 00:36:18;;;;;;;108.75;36.70;;;1.90;99.90;;;;;;5037779;28;20471;-76
2022/01/16 00:38:45;;;;;;;101.57;36.75;;;2.00;99.90;;;;;;5038018;28;20047;-77
2022/01/16 00:41:18;;;;;;;104.75;37.10;;;2.00;99.90;;;;;;5021578;28;20041;-76
2022/01/16 00:43:44;;;;;;;103.57;36.42;;;1.90;99.90;;;;;;5037915;28;20044;-76
2022/01/16 00:46:09;;;;;;;99.35;33.90;;;1.90;99.90;;;;;;5021079;28;20047;-76
2022/01/16 00:48:35;;;;;;;98.97;35.92;;;1.90;99.90;;;;;;5021325;28;20044;-76
2022/01/16 00:51:01;;;;;;;99.53;36.20;;;1.90;99.90;;;;;;5037381;28;20056;-76
2022/01/16 00:53:27;;;;;;;108.05;37.75;;;1.90;99.90;;;;;;5034319;28;20066;-77
2022/01/16 00:55:53;;;;;;;112.55;36.95;;;1.90;99.90;;;;;;5037671;28;20426;-76
2022/01/16 00:58:19;;;;;;;101.00;35.97;;;1.90;99.90;;;;;;5021251;28;20044;-76
2022/01/16 01:00:44;;;;;;;103.18;37.05;;;1.90;99.90;;;;;;5021031;28;20450;-77
2022/01/16 01:03:11;;;;;;;108.13;38.45;;;2.00;99.90;;;;;;5020737;28;20136;-75
2022/01/16 01:05:37;;;;;;;108.65;36.15;;;1.90;99.90;;;;;;5037049;28;20048;-76
2022/01/16 01:08:04;;;;;;;109.68;36.60;;;1.90;99.90;;;;;;5020820;28;20047;-76
2022/01/16 01:10:36;;;;;;;116.13;38.55;;;1.90;99.90;;;;;;5037590;28;20132;-76
2022/01/16 01:13:11;;;;;;;109.88;36.17;;;1.90;99.90;;;;;;5024456;28;20492;-76
2022/01/16 01:15:49;;;;;;;119.45;39.20;;;1.90;99.90;;;;;;5020818;28;20053;-76
2022/01/16 01:18:15;;;;;;;114.15;35.78;;;1.90;99.90;;;;;;5045761;28;20037;-77
2022/01/16 01:20:43;;;;;;;113.13;37.60;;;1.90;99.90;;;;;;5053208;28;20037;-78
2022/01/16 01:23:10;;;;;;;119.70;37.45;;;1.80;99.90;;;;;;5037316;28;20060;-76
2022/01/16 01:25:37;;;;;;;127.32;37.60;;;1.80;99.90;;;;;;5037212;28;20076;-76
2022/01/16 01:28:04;;;;;;;109.93;37.08;;;1.80;99.90;;;;;;5036831;28;20545;-75
2022/01/16 01:30:30;;;;;;;116.57;38.05;;;1.80;99.90;;;;;;5036597;28;20487;-76
2022/01/16 01:32:56;;;;;;;124.63;38.85;;;1.80;99.90;;;;;;5036822;28;20032;-78
2022/01/16 01:35:23;;;;;;;117.95;38.53;;;1.70;99.90;;;;;;5037278;28;20045;-76
2022/01/16 01:37:48;;;;;;;108.90;38.13;;;1.80;99.90;;;;;;5020717;28;20052;-76
2022/01/16 01:40:20;;;;;;;110.97;37.50;;;1.70;99.90;;;;;;5036678;28;20047;-77
2022/01/16 01:43:01;;;;;;;107.20;38.20;;;1.70;99.90;;;;;;5021500;28;20053;-76
2022/01/16 01:51:14;;;;;;;103.03;36.55;;;1.70;99.90;;;;;;5056140;28;20057;-77
2022/01/16 01:53:42;;;;;;;104.55;35.75;;;1.70;99.90;;;;;;5055900;28;20130;-77
2022/01/16 01:56:10;;;;;;;107.00;37.05;;;1.70;99.90;;;;;;5039641;28;20372;-76
2022/01/16 01:58:37;;;;;;;119.23;37.30;;;1.70;99.90;;;;;;5055886;28;20382;-76
2022/01/16 02:01:03;;;;;;;113.45;36.05;;;1.60;99.90;;;;;;5039353;28;20107;-75
2022/01/16 02:03:42;;;;;;;114.68;37.72;;;1.60;99.90;;;;;;5039565;28;20056;-78
2022/01/16 02:06:14;;;;;;;112.60;36.43;;;1.60;99.90;;;;;;5038967;28;20394;-76
2022/01/16 02:08:47;;;;;;;129.80;37.72;;;1.50;99.90;;;;;;5056128;28;20114;-77
2022/01/16 02:11:15;;;;;;;134.18;37.40;;;1.60;99.90;;;;;;5056276;28;20048;-76
2022/01/16 02:13:51;;;;;;;134.70;36.67;;;1.50;99.90;;;;;;5055179;28;20033;-77
2022/01/16 02:35:10;;;;;;;184.27;40.63;;;1.50;99.90;;;;;;5055539;28;20105;-77
2022/01/16 02:37:35;;;;;;;193.88;42.22;;;1.50;99.90;;;;;;5055769;28;20040;-77
2022/01/16 02:40:09;;;;;;;155.85;39.70;;;1.50;99.90;;;;;;5055759;28;20043;-76
2022/01/16 02:42:39;;;;;;;179.60;41.72;;;1.50;99.90;;;;;;5055967;28;20047;-77
2022/01/16 02:45:07;;;;;;;201.65;44.78;;;1.60;99.90;;;;;;5055671;28;20040;-76
2022/01/16 02:47:33;;;;;;;190.25;43.03;;;1.60;99.90;;;;;;5055505;28;20037;-75
2022/01/16 02:50:00;;;;;;;196.65;43.95;;;1.60;99.90;;;;;;5055157;28;20048;-76
2022/01/16 02:52:26;;;;;;;188.90;44.03;;;1.60;99.90;;;;;;5055718;28;20044;-76
2022/01/16 02:54:55;;;;;;;162.35;42.38;;;1.70;99.90;;;;;;5039012;28;20128;-76
2022/01/16 02:57:21;;;;;;;181.43;43.90;;;1.70;99.90;;;;;;5055523;28;20046;-75
2022/01/16 02:59:55;;;;;;;239.73;45.70;;;1.70;99.90;;;;;;5051865;28;20468;-76
2022/01/16 03:02:22;;;;;;;195.27;44.10;;;1.70;99.90;;;;;;5035340;28;20095;-77
2022/01/16 03:04:48;;;;;;;182.68;43.83;;;1.60;99.90;;;;;;5034981;28;20098;-76
2022/01/16 03:07:15;;;;;;;169.65;42.83;;;1.70;99.90;;;;;;5035299;28;20036;-77
2022/01/16 03:10:05;;;;;;;191.70;44.28;;;1.70;99.90;;;;;;5039050;28;20383;-76
2022/01/16 03:12:30;;;;;;;238.65;45.80;;;1.80;99.90;;;;;;5042638;28;20040;-76
2022/01/16 03:14:56;;;;;;;241.95;47.47;;;1.80;99.90;;;;;;5059164;28;20041;-77
2022/01/16 03:17:35;;;;;;;191.35;44.70;;;1.80;99.90;;;;;;5043087;28;20036;-77
2022/01/16 03:22:47;;;;;;;198.82;44.15;;;1.80;99.90;;;;;;5059328;28;20044;-76
2022/01/16 03:25:13;;;;;;;252.57;49.03;;;1.80;99.90;;;;;;5042592;28;20090;-76
2022/01/16 03:27:38;;;;;;;264.90;49.40;;;1.80;99.90;;;;;;5058397;28;20040;-76
2022/01/16 03:30:05;;;;;;;266.63;51.25;;;1.80;99.90;;;;;;5059807;28;20487;-77
2022/01/16 03:32:30;;;;;;;244.55;48.30;;;1.90;99.90;;;;;;5058942;28;20087;-76
2022/01/16 03:34:56;;;;;;;239.75;48.70;;;1.90;99.90;;;;;;5059358;28;20080;-76
2022/01/16 03:37:21;;;;;;;242.23;48.42;;;1.90;99.90;;;;;;5042343;28;20127;-76
2022/01/16 03:39:47;;;;;;;250.23;49.78;;;1.90;99.90;;;;;;5042205;28;20033;-76
2022/01/16 03:42:13;;;;;;;230.02;45.63;;;1.90;99.90;;;;;;5058710;28;20445;-77
2022/01/16 03:44:38;;;;;;;191.10;47.08;;;2.00;99.90;;;;;;5043055;28;20036;-78
2022/01/16 03:47:04;;;;;;;215.85;46.65;;;2.00;99.90;;;;;;5042409;28;20070;-76
2022/01/16 03:49:31;;;;;;;258.40;48.95;;;2.00;99.90;;;;;;5057802;28;20041;-76
2022/01/16 03:51:59;;;;;;;205.65;47.08;;;2.00;99.90;;;;;;5058925;28;20052;-76
2022/01/16 03:54:28;;;;;;;227.10;48.25;;;2.00;99.90;;;;;;5058500;28;20033;-76
2022/01/16 03:56:54;;;;;;;204.60;47.05;;;2.00;99.90;;;;;;5042118;28;20087;-76
2022/01/16 03:59:21;;;;;;;193.90;45.90;;;2.10;99.90;;;;;;5058602;28;20041;-77
2022/01/16 04:01:47;;;;;;;196.38;47.70;;;2.10;99.90;;;;;;5041327;28;20025;-76
2022/01/16 04:04:12;;;;;;;215.02;48.22;;;2.10;99.90;;;;;;5057414;28;20041;-76
2022/01/16 04:06:38;;;;;;;206.95;48.50;;;2.10;99.90;;;;;;5041346;28;20097;-76
2022/01/16 04:09:04;;;;;;;221.57;46.08;;;2.20;99.90;;;;;;5041700;28;20032;-78
2022/01/16 04:11:31;;;;;;;210.93;46.38;;;2.20;99.90;;;;;;5058420;28;20131;-78
2022/01/16 04:14:09;;;;;;;205.65;46.92;;;2.20;99.90;;;;;;5058451;28;20447;-76
2022/01/16 04:16:36;;;;;;;218.82;48.33;;;2.20;99.90;;;;;;5058616;28;20049;-76
2022/01/16 04:19:03;;;;;;;204.25;47.60;;;2.20;99.90;;;;;;5058248;28;20045;-78
2022/01/16 04:21:29;;;;;;;201.07;46.30;;;2.20;99.90;;;;;;5057362;28;20479;-76
2022/01/16 04:23:55;;;;;;;210.38;46.50;;;2.20;99.90;;;;;;5041144;28;20044;-76
2022/01/16 04:26:25;;;;;;;209.95;49.08;;;2.20;99.90;;;;;;5041629;28;20044;-76
2022/01/16 04:28:51;;;;;;;213.88;47.47;;;2.30;99.90;;;;;;5041406;28;20442;-76
2022/01/16 04:31:17;;;;;;;210.90;47.63;;;2.30;99.90;;;;;;5058112;28;20043;-75
2022/01/16 04:33:43;;;;;;;207.98;49.03;;;2.30;99.90;;;;;;5054232;28;20037;-77
2022/01/16 04:36:10;;;;;;;220.98;47.85;;;2.30;99.90;;;;;;5021229;28;20487;-76
2022/01/16 04:38:38;;;;;;;218.00;48.78;;;2.40;99.90;;;;;;5038023;28;20048;-77
2022/01/16 04:43:50;;;;;;;204.45;48.28;;;2.40;99.90;;;;;;5054391;28;20131;-77
2022/01/16 04:46:27;;;;;;;200.20;47.40;;;2.40;99.90;;;;;;5037620;28;20059;-75
2022/01/16 04:48:53;;;;;;;195.63;47.00;;;2.40;99.90;;;;;;5037387;28;20041;-75
2022/01/16 04:51:22;;;;;;;190.93;46.53;;;2.40;99.90;;;;;;5037715;28;20044;-75
2022/01/16 04:53:48;;;;;;;197.13;48.20;;;2.40;99.90;;;;;;5021987;28;20045;-76
2022/01/16 04:56:14;;;;;;;189.00;46.90;;;2.40;99.90;;;;;;5037480;28;20498;-76
2022/01/16 04:58:41;;;;;;;185.43;47.80;;;2.40;99.90;;;;;;5037403;28;20041;-75
2022/01/16 05:01:08;;;;;;;182.27;46.67;;;2.50;99.90;;;;;;5035686;28;20091;-75
2022/01/16 05:03:34;;;;;;;189.80;46.60;;;2.50;99.90;;;;;;5036871;28;20045;-75
2022/01/16 05:06:00;;;;;;;186.77;47.35;;;2.50;99.90;;;;;;5038284;28;20053;-75
2022/01/16 05:08:26;;;;;;;177.43;45.83;;;2.50;99.90;;;;;;5057562;28;20075;-76
2022/01/16 05:10:53;;;;;;;174.20;45.92;;;2.60;99.90;;;;;;5057525;28;20075;-76
2022/01/16 05:18:32;;;;;;;177.45;46.38;;;2.60;99.90;;;;;;5037054;28;20159;-78
2022/01/16 05:20:58;;;;;;;166.88;47.00;;;2.60;99.90;;;;;;5020399;28;20128;-75
2022/01/16 05:23:24;;;;;;;173.43;46.33;;;2.60;99.90;;;;;;5036909;28;20391;-75
2022/01/16 05:25:50;;;;;;;178.75;48.20;;;2.60;99.90;;;;;;5020537;28;20041;-75
2022/01/16 05:28:15;;;;;;;163.82;44.80;;;2.60;99.90;;;;;;5020547;28;20127;-76
2022/01/16 05:30:41;;;;;;;172.57;47.25;;;2.60;99.90;;;;;;5051233;28;20135;-76
2022/01/16 05:33:08;;;;;;;158.27;45.42;;;2.60;99.90;;;;;;5056751;28;20387;-75
2022/01/16 05:35:34;;;;;;;171.90;48.42;;;2.70;99.90;;;;;;5056970;28;20036;-76
2022/01/16 05:38:00;;;;;;;158.50;44.75;;;2.70;99.90;;;;;;5056835;28;20044;-77
2022/01/16 05:40:26;;;;;;;169.65;48.00;;;2.70;99.90;;;;;;5056718;28;20047;-74
2022/01/16 05:42:51;;;;;;;171.20;47.50;;;2.70;99.90;;;;;;5056642;28;20382;-76
2022/01/16 05:45:17;;;;;;;178.15;47.55;;;2.70;99.90;;;;;;5056196;28;20102;-77
2022/01/16 05:47:43;;;;;;;169.18;48.72;;;2.70;99.90;;;;;;5056655;28;20127;-76
2022/01/16 05:50:09;;;;;;;166.88;47.90;;;2.70;99.90;;;;;;5056626;28;20463;-75
2022/01/16 05:52:34;;;;;;;170.25;45.58;;;2.80;99.90;;;;;;5039191;28;20493;-75
2022/01/16 05:55:00;;;;;;;168.55;46.92;;;2.70;99.90;;;;;;5055152;28;20044;-75
2022/01/16 05:57:26;;;;;;;154.70;44.75;;;2.80;99.90;;;;;;5039363;28;20051;-75
2022/01/16 05:59:52;;;;;;;174.55;47.38;;;2.80;99.90;;;;;;5039284;28;20044;-76
2022/01/16 06:02:18;;;;;;;167.07;48.42;;;2.80;99.90;;;;;;5056953;28;20425;-77
2022/01/16 06:04:44;;;;;;;163.20;48.85;;;2.80;99.90;;;;;;5039680;28;20448;-75
2022/01/16 06:07:09;;;;;;;178.32;46.35;;;2.80;99.90;;;;;;5039727;28;20045;-75
2022/01/16 06:09:35;;;;;;;181.20;47.30;;;2.80;99.90;;;;;;5039645;28;20045;-75
2022/01/16 06:12:01;;;;;;;161.93;47.13;;;2.80;99.90;;;;;;5055947;28;20461;-77
2022/01/16 06:14:27;;;;;;;168.25;47.00;;;2.90;99.90;;;;;;5055837;28;20047;-76
2022/01/16 06:16:53;;;;;;;169.63;47.40;;;2.80;99.90;;;;;;5056286;28;20044;-75
2022/01/16 06:19:19;;;;;;;176.85;47.08;;;2.90;99.90;;;;;;5056032;28;20387;-76
2022/01/16 06:21:46;;;;;;;176.77;48.40;;;2.90;99.90;;;;;;5052553;28;20117;-77
2022/01/16 06:24:12;;;;;;;183.38;47.67;;;2.90;99.90;;;;;;5035903;28;20047;-75
2022/01/16 06:26:38;;;;;;;186.75;48.45;;;2.90;99.90;;;;;;5035885;28;20086;-76
2022/01/16 06:29:04;;;;;;;186.63;47.55;;;2.90;99.90;;;;;;5035464;28;20041;-75
2022/01/16 06:31:29;;;;;;;175.85;48.05;;;2.90;99.90;;;;;;5019640;28;20102;-76
2022/01/16 06:33:55;;;;;;;192.63;48.35;;;2.90;99.90;;;;;;5020035;28;20040;-75
2022/01/16 06:36:21;;;;;;;172.80;46.97;;;2.90;99.90;;;;;;5019357;28;20387;-76
2022/01/16 06:38:47;;;;;;;181.27;49.90;;;2.90;99.90;;;;;;5019533;28;20472;-77
2022/01/16 06:41:12;;;;;;;175.93;45.58;;;2.90;99.90;;;;;;5035395;28;20502;-76
2022/01/16 06:43:38;;;;;;;170.98;46.70;;;3.00;99.90;;;;;;5035313;28;20033;-76
2022/01/16 06:46:04;;;;;;;183.90;47.97;;;3.00;99.90;;;;;;5035943;28;20515;-75
2022/01/16 06:48:30;;;;;;;180.93;46.53;;;3.00;99.90;;;;;;5019520;28;20570;-77
2022/01/16 06:50:56;;;;;;;175.88;46.17;;;3.00;99.90;;;;;;5019414;28;20037;-76
2022/01/16 06:53:21;;;;;;;181.75;47.08;;;3.00;99.90;;;;;;5035893;28;20047;-74
2022/01/16 06:55:47;;;;;;;185.13;48.20;;;3.10;99.90;;;;;;5019130;28;20386;-75
2022/01/16 06:58:13;;;;;;;166.18;47.05;;;3.00;99.90;;;;;;5018877;28;20506;-75
2022/01/16 07:00:38;;;;;;;181.75;47.65;;;3.10;99.90;;;;;;5035620;28;20040;-75
2022/01/16 07:03:04;;;;;;;184.90;46.78;;;3.10;99.90;;;;;;5035589;28;20131;-76
2022/01/16 07:05:30;;;;;;;186.43;46.92;;;3.10;99.90;;;;;;5035892;28;20486;-75
2022/01/16 07:07:55;;;;;;;194.35;47.63;;;3.10;99.90;;;;;;5035330;28;20076;-75
2022/01/16 07:10:23;;;;;;;169.48;46.60;;;3.10;99.90;;;;;;5019050;28;20493;-75
2022/01/16 07:12:49;;;;;;;175.73;47.72;;;3.20;99.90;;;;;;5035136;28;20112;-75
2022/01/16 07:15:14;;;;;;;181.40;47.30;;;3.20;99.90;;;;;;5019409;28;20132;-75
2022/01/16 07:17:40;;;;;;;175.60;45.40;;;3.20;99.90;;;;;;5036071;28;20131;-75
2022/01/16 07:20:06;;;;;;;185.65;47.80;;;3.20;99.90;;;;;;5030086;28;20032;-76
2022/01/16 07:22:32;;;;;;;171.07;46.72;;;3.20;99.90;;;;;;5051776;28;20544;-76
2022/01/16 07:24:58;;;;;;;178.02;46.00;;;3.30;99.90;;;;;;5035110;28;20630;-75
2022/01/16 07:27:23;;;;;;;167.82;45.85;;;3.30;99.90;;;;;;5018608;28;20047;-76
2022/01/16 07:29:49;;;;;;;177.65;46.63;;;3.30;99.90;;;;;;5035400;28;20132;-76
2022/01/16 07:32:14;;;;;;;174.82;46.22;;;3.30;99.90;;;;;;5035371;28;20043;-75
2022/01/16 07:34:40;;;;;;;169.25;48.05;;;3.30;99.90;;;;;;5019065;28;20048;-75
2022/01/16 07:37:06;;;;;;;176.48;46.72;;;3.30;99.90;;;;;;5018949;28;20048;-76
2022/01/16 07:39:31;;;;;;;172.13;46.42;;;3.30;99.90;;;;;;5035066;28;20045;-76
2022/01/16 07:41:58;;;;;;;185.98;47.65;;;3.30;99.90;;;;;;5019342;28;20094;-76
2022/01/16 07:44:23;;;;;;;178.68;48.05;;;3.40;99.90;;;;;;5054654;28;20417;-75
2022/01/16 07:46:49;;;;;;;174.00;46.95;;;3.40;99.90;;;;;;5054725;28;20041;-75
2022/01/16 07:49:15;;;;;;;177.88;47.50;;;3.40;99.90;;;;;;5055221;28;20522;-76
2022/01/16 07:51:40;;;;;;;167.80;47.17;;;3.40;99.90;;;;;;5055112;28;20045;-75
2022/01/16 07:54:06;;;;;;;176.80;47.95;;;3.40;99.90;;;;;;5054990;28;20040;-76
2022/01/16 07:56:32;;;;;;;167.45;47.90;;;3.40;99.90;;;;;;5040090;28;20101;-76
2022/01/16 07:58:58;;;;;;;173.07;46.92;;;3.40;99.90;;;;;;5059429;28;20041;-75
2022/01/16 08:01:23;;;;;;;171.13;48.45;;;3.50;99.90;;;;;;5058112;28;20395;-76
2022/01/16 08:03:49;;;;;;;163.73;47.60;;;3.50;99.90;;;;;;5058357;28;20044;-76
2022/01/16 08:06:18;;;;;;;161.98;47.63;;;3.50;99.90;;;;;;5058607;28;20040;-76
2022/01/16 08:08:43;;;;;;;167.65;46.92;;;3.60;99.90;;;;;;5058543;28;20072;-76
2022/01/16 08:11:09;;;;;;;168.32;45.45;;;3.60;99.90;;;;;;5058166;28;20132;-75
2022/01/16 08:13:39;;;;;;;166.82;47.47;;;3.70;99.90;;;;;;5041257;28;20047;-76
2022/01/16 08:16:06;;;;;;;160.30;47.42;;;3.70;99.90;;;;;;5058275;28;20356;-74
2022/01/16 08:18:32;;;;;;;160.07;46.45;;;3.70;99.90;;;;;;5058071;28;20052;-76
2022/01/16 08:21:01;;;;;;;161.38;49.35;;;3.80;99.90;;;;;;5054418;28;20045;-76
2022/01/16 08:23:27;;;;;;;163.48;47.22;;;3.80;99.90;;;;;;5038101;28;20083;-76
2022/01/16 08:25:53;;;;;;;159.38;48.35;;;3.80;99.90;;;;;;5021180;28;20084;-76
2022/01/16 08:28:19;;;;;;;160.50;48.13;;;3.80;99.90;;;;;;5037940;28;20041;-77
2022/01/16 08:30:45;;;;;;;159.30;48.72;;;3.80;99.90;;;;;;5021745;28;20082;-76
2022/01/16 08:33:11;;;;;;;152.55;49.15;;;3.90;99.90;;;;;;5038139;28;20049;-76
2022/01/16 08:35:37;;;;;;;155.55;45.50;;;3.90;99.90;;;;;;5038297;28;20041;-76
2022/01/16 08:38:03;;;;;;;157.35;48.05;;;3.90;99.90;;;;;;5037853;28;20041;-76
2022/01/16 08:40:28;;;;;;;155.57;49.13;;;3.90;99.90;;;;;;5050707;28;20090;-77
2022/01/16 08:42:54;;;;;;;155.43;49.15;;;3.90;99.90;;;;;;5041535;28;20044;-76
2022/01/16 08:45:20;;;;;;;152.43;47.50;;;3.90;99.90;;;;;;5057708;28;20040;-76
2022/01/16 08:47:45;;;;;;;151.18;48.58;;;3.90;99.90;;;;;;5058003;28;20040;-75
2022/01/16 08:50:12;;;;;;;135.18;45.90;;;3.90;99.90;;;;;;5041021;28;20044;-75
2022/01/16 08:52:39;;;;;;;149.98;48.28;;;4.00;99.90;;;;;;5057780;28;20064;-77
2022/01/16 08:55:07;;;;;;;143.20;48.90;;;3.90;99.90;;;;;;5057311;28;20048;-76
2022/01/16 08:57:32;;;;;;;138.60;49.33;;;4.00;99.90;;;;;;5057455;28;20116;-76
2022/01/16 08:59:58;;;;;;;146.55;48.63;;;4.00;99.90;;;;;;5057818;28;20135;-75
2022/01/16 09:02:24;;;;;;;147.45;48.47;;;4.00;99.90;;;;;;5057385;28;20493;-76
2022/01/16 09:04:50;;;;;;;138.85;45.88;;;4.10;99.90;;;;;;5039128;28;20053;-75
2022/01/16 09:07:16;;;;;;;143.50;48.80;;;4.10;99.90;;;;;;5056151;28;20439;-75
2022/01/16 09:09:42;;;;;;;138.85;47.78;;;4.10;99.90;;;;;;5056886;28;20382;-77
2022/01/16 09:12:08;;;;;;;139.90;47.30;;;4.10;99.90;;;;;;5040544;28;20047;-73
2022/01/16 09:14:34;;;;;;;136.73;45.40;;;4.20;99.90;;;;;;5057031;28;20040;-75
2022/01/16 09:17:00;;;;;;;126.18;46.33;;;4.20;99.90;;;;;;5057359;28;20036;-75
2022/01/16 09:19:26;;;;;;;133.23;46.65;;;4.20;99.90;;;;;;5056970;28;20040;-75
2022/01/16 09:21:52;;;;;;;135.75;46.55;;;4.30;99.90;;;;;;5056705;28;20045;-74
2022/01/16 09:24:18;;;;;;;119.25;43.67;;;4.30;99.90;;;;;;5056570;28;20059;-75
2022/01/16 09:26:44;;;;;;;126.18;45.72;;;4.30;99.90;;;;;;5040452;28;20048;-75
2022/01/16 09:29:09;;;;;;;123.85;45.00;;;4.40;99.90;;;;;;5056632;28;20079;-74
2022/01/16 09:31:35;;;;;;;122.13;45.22;;;4.40;99.90;;;;;;5056148;28;20036;-76
2022/01/16 09:34:00;;;;;;;118.15;45.03;;;4.40;99.90;;;;;;5052750;28;20032;-76
2022/01/16 09:36:27;;;;;;;118.90;44.28;;;4.50;99.90;;;;;;5030581;28;20162;-74
2022/01/16 09:38:52;;;;;;;120.93;43.72;;;4.50;99.90;;;;;;5056430;28;20093;-74
2022/01/16 09:41:19;;;;;;;110.63;42.67;;;4.50;99.90;;;;;;5040312;28;20508;-75
2022/01/16 09:43:45;;;;;;;116.85;44.42;;;4.50;99.90;;;;;;5056786;28;20043;-74
2022/01/16 09:46:11;;;;;;;119.22;44.97;;;4.50;99.90;;;;;;5056705;28;20097;-75
2022/01/16 09:48:37;;;;;;;114.93;42.70;;;4.50;99.90;;;;;;5040017;28;20127;-75
2022/01/16 09:51:03;;;;;;;115.15;43.88;;;4.60;99.90;;;;;;5039609;28;20053;-75
2022/01/16 09:53:29;;;;;;;120.75;44.88;;;4.60;99.90;;;;;;5056015;28;20394;-75
2022/01/16 09:55:54;;;;;;;111.22;42.75;;;4.70;99.90;;;;;;5056611;28;20044;-74
2022/01/16 09:58:21;;;;;;;119.13;44.35;;;4.70;99.90;;;;;;5056506;28;20048;-74
2022/01/16 10:00:47;;;;;;;113.25;43.80;;;4.70;99.90;;;;;;5039874;28;20052;-75
2022/01/16 10:03:51;;;;;;;108.10;42.80;;;4.70;99.90;;;;;;5039185;28;20049;-75
2022/01/16 10:06:23;;;;;;;115.65;43.80;;;4.70;99.90;;;;;;4992446;28;20358;-74
2022/01/16 10:08:51;;;;;;;110.35;44.55;;;4.80;99.90;;;;;;4976443;28;20039;-75
2022/01/16 10:11:19;;;;;;;109.75;44.05;;;4.70;99.90;;;;;;5017630;28;20048;-75
2022/01/16 10:14:09;;;;;;;98.25;40.85;;;4.80;99.90;;;;;;5056339;28;20060;-75
2022/01/16 10:16:40;;;;;;;103.70;43.10;;;4.80;99.90;;;;;;5056042;28;20047;-74
2022/01/16 10:19:23;;;;;;;109.63;42.58;;;4.80;99.90;;;;;;5055785;28;20082;-74
2022/01/16 10:21:50;;;;;;;97.03;42.80;;;4.80;99.90;;;;;;5039124;28;20047;-74
2022/01/16 10:24:30;;;;;;;100.68;43.15;;;4.90;99.90;;;;;;5055840;28;20364;-74
2022/01/16 10:27:08;;;;;;;99.65;42.78;;;4.80;99.90;;;;;;5038896;28;20496;-74
2022/01/16 10:29:56;;;;;;;97.72;43.88;;;4.90;99.90;;;;;;5056023;28;20131;-74
2022/01/16 10:32:31;;;;;;;91.50;41.53;;;4.90;99.90;;;;;;5055957;28;20048;-74
2022/01/16 10:35:17;;;;;;;93.13;39.80;;;4.90;99.90;;;;;;5038241;28;20502;-74
2022/01/16 10:37:48;;;;;;;92.15;41.08;;;5.00;99.90;;;;;;5055222;28;20383;-75
2022/01/16 10:40:20;;;;;;;92.65;39.20;;;5.00;99.90;;;;;;5039225;28;20398;-74
2022/01/16 10:42:53;;;;;;;95.18;40.08;;;5.00;99.90;;;;;;5055612;28;20082;-75
2022/01/16 10:45:23;;;;;;;83.10;38.55;;;5.10;99.90;;;;;;5055572;28;20489;-73
2022/01/16 10:47:54;;;;;;;86.28;38.42;;;5.10;99.90;;;;;;5038668;28;20059;-75
2022/01/16 10:50:25;;;;;;;87.15;35.78;;;5.20;99.90;;;;;;5038587;28;20043;-74
2022/01/16 10:53:00;;;;;;;82.68;37.10;;;5.20;99.90;;;;;;5038760;28;20041;-75
2022/01/16 10:55:47;;;;;;;83.82;38.20;;;5.20;99.90;;;;;;5055574;28;20091;-73
2022/01/16 10:58:37;;;;;;;82.03;36.50;;;5.20;99.90;;;;;;5055045;28;20098;-74
2022/01/16 11:01:09;;;;;;;76.25;35.50;;;5.30;99.90;;;;;;5055366;28;20387;-74
2022/01/16 11:03:49;;;;;;;79.97;35.90;;;5.30;99.90;;;;;;5055436;28;20053;-74
2022/01/16 11:06:17;;;;;;;72.75;35.33;;;5.30;99.90;;;;;;5054533;28;20048;-76
2022/01/16 11:08:51;;;;;;;71.05;33.75;;;5.30;99.90;;;;;;5038593;28;20458;-74
2022/01/16 11:11:19;;;;;;;73.97;34.20;;;5.40;99.90;;;;;;5055638;28;20044;-74
2022/01/16 11:13:46;;;;;;;73.93;35.22;;;5.40;99.90;;;;;;5055102;28;20098;-74
2022/01/16 11:16:12;;;;;;;70.47;34.17;;;5.40;99.90;;;;;;5037741;28;20056;-73
2022/01/16 11:18:40;;;;;;;71.95;33.17;;;5.40;99.90;;;;;;5037544;28;20363;-75
2022/01/16 11:26:23;;;;;;;72.15;33.97;;;5.50;99.90;;;;;;5053769;28;20040;-76
2022/01/16 11:28:52;;;;;;;70.75;32.17;;;5.50;99.90;;;;;;5053554;28;20048;-74
2022/01/16 11:31:18;;;;;;;68.80;31.20;;;5.50;99.90;;;;;;5055778;28;20483;-73
2022/01/16 11:33:44;;;;;;;65.18;32.22;;;5.50;99.90;;;;;;5058440;28;20080;-76
2022/01/16 11:36:20;;;;;;;65.15;32.30;;;5.50;99.90;;;;;;5040628;28;20072;-74
2022/01/16 11:39:03;;;;;;;62.50;29.48;;;5.50;99.90;;;;;;5041681;28;20071;-76
2022/01/16 11:41:33;;;;;;;57.97;29.48;;;5.50;99.90;;;;;;5040896;28;20364;-74
2022/01/16 11:44:02;;;;;;;50.90;25.65;;;5.60;99.90;;;;;;5040445;28;20466;-74
2022/01/16 11:46:29;;;;;;;56.10;26.13;;;5.60;99.90;;;;;;5057239;28;20033;-74
2022/01/16 11:48:58;;;;;;;48.58;23.63;;;5.70;99.90;;;;;;5058017;28;20127;-74
2022/01/16 11:51:36;;;;;;;44.25;23.33;;;5.70;99.90;;;;;;5053473;28;20044;-74
2022/01/16 11:54:02;;;;;;;39.72;21.30;;;5.70;99.90;;;;;;5020592;28;20053;-74
2022/01/16 11:56:40;;;;;;;38.95;19.95;;;5.70;99.90;;;;;;5037515;28;20385;-73
2022/01/16 11:59:22;;;;;;;29.83;17.33;;;5.80;99.90;;;;;;5036931;28;20499;-73
2022/01/16 12:01:52;;;;;;;33.22;17.00;;;5.90;99.90;;;;;;5020427;28;20037;-75
2022/01/16 12:04:30;;;;;;;30.05;15.93;;;5.90;99.90;;;;;;5038578;28;20447;-78
2022/01/16 12:07:01;;;;;;;35.38;17.30;;;6.00;99.90;;;;;;5035661;28;20480;-75
2022/01/16 12:09:48;;;;;;;26.55;15.13;;;6.00;99.90;;;;;;5037766;28;20543;-73
2022/01/16 12:12:14;;;;;;;27.85;15.35;;;6.00;99.90;;;;;;5051032;28;20056;-75
2022/01/16 12:14:59;;;;;;;29.95;15.43;;;6.00;99.90;;;;;;5057691;28;20417;-74
2022/01/16 12:17:34;;;;;;;25.95;14.70;;;6.10;99.90;;;;;;5057514;28;20479;-75
2022/01/16 12:20:27;;;;;;;32.40;14.43;;;6.10;99.90;;;;;;5053447;28;20045;-74
2022/01/16 12:22:55;;;;;;;26.27;14.82;;;6.20;99.90;;;;;;5037504;28;20167;-76
2022/01/16 12:25:26;;;;;;;28.80;13.15;;;6.20;99.90;;;;;;5054003;28;20119;-74
2022/01/16 12:28:04;;;;;;;30.38;13.77;;;6.20;99.90;;;;;;5020493;28;20056;-74
2022/01/16 12:30:38;;;;;;;29.10;13.45;;;6.20;99.90;;;;;;5021060;28;20037;-76
2022/01/16 12:33:11;;;;;;;32.00;14.20;;;6.20;99.90;;;;;;5054097;28;20087;-74
2022/01/16 12:35:49;;;;;;;26.02;14.82;;;6.20;99.90;;;;;;5050164;28;20044;-74
2022/01/16 12:38:19;;;;;;;25.02;13.93;;;6.20;99.90;;;;;;5040000;28;20363;-76
2022/01/16 12:40:48;;;;;;;25.92;13.73;;;6.30;99.90;;;;;;5056791;28;20041;-76
2022/01/16 12:43:40;;;;;;;25.13;14.15;;;6.30;99.90;;;;;;5040120;28;20072;-74
2022/01/16 12:46:08;;;;;;;28.05;14.18;;;6.30;99.90;;;;;;5040087;28;20132;-75
2022/01/16 12:48:40;;;;;;;29.40;14.48;;;6.40;99.90;;;;;;5057153;28;20040;-74
2022/01/16 12:51:08;;;;;;;30.52;14.25;;;6.30;99.90;;;;;;5038716;28;20044;-74
2022/01/16 12:53:41;;;;;;;27.85;14.35;;;6.40;99.90;;;;;;5039413;28;20460;-74
2022/01/16 12:56:23;;;;;;;27.58;15.00;;;6.40;99.90;;;;;;5040023;28;20391;-74
2022/01/16 12:58:52;;;;;;;24.73;13.93;;;6.40;99.90;;;;;;5056645;28;20186;-76
2022/01/16 13:01:18;;;;;;;27.98;13.65;;;6.40;99.90;;;;;;5040022;28;20062;-73
2022/01/16 13:03:45;;;;;;;27.05;12.80;;;6.40;99.90;;;;;;5039959;28;20394;-75
2022/01/16 13:06:38;;;;;;;24.90;12.85;;;6.40;99.90;;;;;;5056247;28;20112;-74
2022/01/16 13:09:09;;;;;;;21.40;12.43;;;6.50;99.90;;;;;;5033731;28;20167;-72
2022/01/16 13:11:45;;;;;;;27.25;12.55;;;6.50;99.90;;;;;;5037669;28;20044;-76
2022/01/16 13:14:25;;;;;;;26.13;12.88;;;6.50;99.90;;;;;;5021133;28;20098;-73
2022/01/16 13:16:52;;;;;;;21.65;12.18;;;6.50;99.90;;;;;;5037237;28;20479;-73
2022/01/16 13:19:24;;;;;;;27.08;12.27;;;6.60;99.90;;;;;;5039362;28;20044;-75